Pacific Dawn — 2AGH7 — position and weather

sailwx.info

Track history (hours):
 
Tides and Currents Weather Stations Pressure Air Temp Water Temp Dewpoint Dewpoint Depression Visibility Wind Speed Wind Dir Waves Ship Positions

Pacific Dawn

Last reported at 2014-Oct-25 17:23 UTC. Time now 2014-Oct-26 08:35 UTC.
Position S 25°52' E 155°46'.

Length 245 m; draft 8.4 m.

Type: Passenger vessel. MMSI: 235059368.

Date/timePositionNaut miles runAvg speedWind from/ knotsBaromVisibWave heightAir tempDewpointWater temp
2014-Oct-25 17:23S 25°52' E 155°46'3619.4
2014-Oct-25 15:33S 26°04' E 155°09'2119.8
2014-Oct-25 14:30S 26°11' E 154°47'2519.6
2014-Oct-25 13:14S 26°19' E 154°21'2118.5
2014-Oct-25 12:06S 26°28' E 153°59'1118.8
2014-Oct-25 11:33S 26°31' E 153°48'1919.3
2014-Oct-25 10:33S 26°38' E 153°28'1616.2
2014-Oct-25 09:33S 26°43' E 153°11'1313.1
2014-Oct-25 08:33S 26°56' E 153°12'1515.3
2014-Oct-25 07:34S 27°09' E 153°21'1514.8
2014-Oct-25 06:33S 27°21' E 153°11'2 2.2
2014-Oct-25 05:31S 27°23' E 153°10'0 0.0
2014-Oct-25 04:31S 27°23' E 153°10'0 0.0
2014-Oct-25 03:31S 27°23' E 153°10'0 0.0
2014-Oct-25 02:31S 27°23' E 153°10'0 0.0
2014-Oct-25 01:31S 27°23' E 153°10'0 0.0
2014-Oct-25 00:31S 27°23' E 153°10'0 0.0
2014-Oct-24 23:31S 27°23' E 153°10'0 0.0
2014-Oct-24 22:31S 27°23' E 153°10'0 0.0
2014-Oct-24 21:31S 27°23' E 153°10'0 0.0
2014-Oct-24 20:31S 27°23' E 153°10'0 0.0
2014-Oct-24 19:33S 27°23' E 153°10'6 6.4
2014-Oct-24 18:34S 27°17' E 153°13'1212.4
2014-Oct-24 17:34S 27°06' E 153°20'1616.2
2014-Oct-24 16:33S 26°53' E 153°10'1110.8
2014-Oct-24 15:33S 26°42' E 153°13'1818.0
2014-Oct-24 14:34S 26°35' E 153°32'1918.8
2014-Oct-24 13:34S 26°25' E 153°50'2219.6
2014-Oct-24 12:25S 26°11' E 154°09'1619.2
2014-Oct-24 11:33S 26°02' E 154°24'  
2014-Oct-18 13:34S 26°36' E 153°28'1716.8
2014-Oct-18 12:33S 26°42' E 153°11'1514.5
2014-Oct-18 11:33S 26°56' E 153°13'1716.8
2014-Oct-18 10:33S 27°12' E 153°21'1514.5
2014-Oct-18 09:33S 27°23' E 153°10'6 6.2
2014-Oct-18 08:34S 27°27' E 153°04'0 0.3
2014-Oct-18 07:29S 27°26' E 153°04'0 0.0
2014-Oct-18 06:32S 27°26' E 153°04'0 0.0
2014-Oct-18 05:17S 27°26' E 153°04'0 0.0
2014-Oct-18 04:26S 27°26' E 153°04'0 0.0
2014-Oct-18 03:26S 27°26' E 153°04'0 0.0
2014-Oct-18 02:29S 27°26' E 153°04'0 0.0
2014-Oct-18 01:32S 27°26' E 153°04'0 0.0
2014-Oct-18 00:20S 27°26' E 153°04'0 0.0
2014-Oct-17 23:32S 27°26' E 153°04'0 0.0
2014-Oct-17 22:29S 27°26' E 153°04'0 0.0
2014-Oct-17 20:29S 27°26' E 153°04'0 0.0
2014-Oct-17 19:21S 27°26' E 153°04'4 5.0
2014-Oct-17 18:33S 27°25' E 153°08'1110.7
2014-Oct-17 17:34S 27°17' E 153°15'1313.4
2014-Oct-17 16:33S 27°03' E 153°18'1615.6
2014-Oct-17 15:33S 26°50' E 153°09'1111.1
2014-Oct-17 14:33S 26°41' E 153°17'1716.6
2014-Oct-17 13:33S 26°35' E 153°34'  
Track history (hours):
 
Tides and Currents Weather Stations Pressure Air Temp Water Temp Dewpoint Dewpoint Depression Visibility Wind Speed Wind Dir Waves Ship Positions

Pacific Dawn

Last reported at 2014-Oct-25 17:23 UTC. Time now 2014-Oct-26 08:35 UTC.
Position S 25°52' E 155°46'.

Length 245 m; draft 8.4 m.

Type: Passenger vessel. MMSI: 235059368.

Date/timePositionNaut miles runAvg speedWind from/ knotsBaromVisibWave heightAir tempDewpointWater temp
2014-Oct-25 17:23S 25°52' E 155°46'3619.4
2014-Oct-25 15:33S 26°04' E 155°09'2119.8
2014-Oct-25 14:30S 26°11' E 154°47'2519.6
2014-Oct-25 13:14S 26°19' E 154°21'2118.5
2014-Oct-25 12:06S 26°28' E 153°59'1118.8
2014-Oct-25 11:33S 26°31' E 153°48'1919.3
2014-Oct-25 10:33S 26°38' E 153°28'1616.2
2014-Oct-25 09:33S 26°43' E 153°11'1313.1
2014-Oct-25 08:33S 26°56' E 153°12'1515.3
2014-Oct-25 07:34S 27°09' E 153°21'1514.8
2014-Oct-25 06:33S 27°21' E 153°11'2 2.2
2014-Oct-25 05:31S 27°23' E 153°10'0 0.0
2014-Oct-25 04:31S 27°23' E 153°10'0 0.0
2014-Oct-25 03:31S 27°23' E 153°10'0 0.0
2014-Oct-25 02:31S 27°23' E 153°10'0 0.0
2014-Oct-25 01:31S 27°23' E 153°10'0 0.0
2014-Oct-25 00:31S 27°23' E 153°10'0 0.0
2014-Oct-24 23:31S 27°23' E 153°10'0 0.0
2014-Oct-24 22:31S 27°23' E 153°10'0 0.0
2014-Oct-24 21:31S 27°23' E 153°10'0 0.0
2014-Oct-24 20:31S 27°23' E 153°10'0 0.0
2014-Oct-24 19:33S 27°23' E 153°10'6 6.4
2014-Oct-24 18:34S 27°17' E 153°13'1212.4
2014-Oct-24 17:34S 27°06' E 153°20'1616.2
2014-Oct-24 16:33S 26°53' E 153°10'1110.8
2014-Oct-24 15:33S 26°42' E 153°13'1818.0
2014-Oct-24 14:34S 26°35' E 153°32'1918.8
2014-Oct-24 13:34S 26°25' E 153°50'2219.6
2014-Oct-24 12:25S 26°11' E 154°09'1619.2
2014-Oct-24 11:33S 26°02' E 154°24'  
2014-Oct-18 13:34S 26°36' E 153°28'1716.8
2014-Oct-18 12:33S 26°42' E 153°11'1514.5
2014-Oct-18 11:33S 26°56' E 153°13'1716.8
2014-Oct-18 10:33S 27°12' E 153°21'1514.5
2014-Oct-18 09:33S 27°23' E 153°10'6 6.2
2014-Oct-18 08:34S 27°27' E 153°04'0 0.3
2014-Oct-18 07:29S 27°26' E 153°04'0 0.0
2014-Oct-18 06:32S 27°26' E 153°04'0 0.0
2014-Oct-18 05:17S 27°26' E 153°04'0 0.0
2014-Oct-18 04:26S 27°26' E 153°04'0 0.0
2014-Oct-18 03:26S 27°26' E 153°04'0 0.0
2014-Oct-18 02:29S 27°26' E 153°04'0 0.0
2014-Oct-18 01:32S 27°26' E 153°04'0 0.0
2014-Oct-18 00:20S 27°26' E 153°04'0 0.0
2014-Oct-17 23:32S 27°26' E 153°04'0 0.0
2014-Oct-17 22:29S 27°26' E 153°04'0 0.0
2014-Oct-17 20:29S 27°26' E 153°04'0 0.0
2014-Oct-17 19:21S 27°26' E 153°04'4 5.0
2014-Oct-17 18:33S 27°25' E 153°08'1110.7
2014-Oct-17 17:34S 27°17' E 153°15'1313.4
2014-Oct-17 16:33S 27°03' E 153°18'1615.6
2014-Oct-17 15:33S 26°50' E 153°09'1111.1
2014-Oct-17 14:33S 26°41' E 153°17'1716.6
2014-Oct-17 13:33S 26°35' E 153°34'  

Dump ship's entire track history